createdAt,value
2022-09-04T00:00:11.961Z,21.89
2022-09-04T00:03:00.870Z,21.95
2022-09-04T00:05:37.281Z,22.44
2022-09-04T00:08:11.901Z,22.44
2022-09-04T00:10:55.744Z,22.04
2022-09-04T00:13:52.535Z,21.39
2022-09-04T00:16:25.525Z,21.56
2022-09-04T00:19:04.034Z,21.66
2022-09-04T00:21:36.542Z,21.59
2022-09-04T00:24:06.194Z,21.57
2022-09-04T00:26:58.505Z,21.23
2022-09-04T00:29:43.867Z,21.22
2022-09-04T00:32:20.094Z,22.00
2022-09-04T00:35:05.217Z,20.96
2022-09-04T00:37:39.624Z,21.60
2022-09-04T00:40:18.023Z,22.42
2022-09-04T00:43:12.812Z,22.29
2022-09-04T00:45:58.798Z,21.89
2022-09-04T00:49:21.422Z,20.86
2022-09-04T00:52:09.243Z,20.98
2022-09-04T00:55:02.803Z,21.26
2022-09-04T00:58:02.092Z,20.99
2022-09-04T01:00:30.463Z,20.38
2022-09-04T01:03:04.069Z,20.32
2022-09-04T01:05:45.701Z,20.31
2022-09-04T01:08:30.735Z,20.57
2022-09-04T01:11:04.044Z,21.37
2022-09-04T01:13:34.097Z,21.06
2022-09-04T01:16:08.090Z,20.76
2022-09-04T01:18:46.477Z,21.14
2022-09-04T01:21:39.031Z,20.69
2022-09-04T01:24:27.432Z,20.19
2022-09-04T01:27:05.869Z,20.84
2022-09-04T01:30:08.223Z,21.24
2022-09-04T01:32:48.897Z,21.05
2022-09-04T01:35:35.760Z,20.40
2022-09-04T01:38:25.645Z,20.37
2022-09-04T01:41:14.522Z,20.58
2022-09-04T01:43:41.636Z,19.81
2022-09-04T01:46:14.776Z,20.29
2022-09-04T01:49:02.801Z,20.49
2022-09-04T01:52:11.854Z,20.32
2022-09-04T01:54:48.561Z,21.78
2022-09-04T01:57:58.480Z,19.81
2022-09-04T02:00:25.919Z,20.70
2022-09-04T02:03:03.951Z,21.00
2022-09-04T02:05:49.559Z,20.96
2022-09-04T02:08:49.846Z,20.48
2022-09-04T02:11:28.044Z,21.34
2022-09-04T02:14:11.472Z,21.33
2022-09-04T02:16:42.930Z,20.24
2022-09-04T02:19:45.323Z,21.57
2022-09-04T02:22:46.163Z,20.74
2022-09-04T02:25:35.468Z,20.90
2022-09-04T02:28:08.661Z,21.06
2022-09-04T02:31:10.281Z,20.89
2022-09-04T02:33:54.870Z,21.70
2022-09-04T02:36:28.148Z,22.00
2022-09-04T02:39:01.656Z,21.35
2022-09-04T02:41:52.995Z,21.43
2022-09-04T02:44:38.733Z,21.32
2022-09-04T02:47:18.600Z,21.81
2022-09-04T02:49:52.129Z,21.40
2022-09-04T02:52:41.431Z,21.20
2022-09-04T02:55:45.759Z,21.69
2022-09-04T02:58:20.193Z,22.49
2022-09-04T03:01:04.127Z,22.24
2022-09-04T03:03:34.067Z,21.68
2022-09-04T03:06:13.698Z,22.00
2022-09-04T03:09:09.299Z,21.97
2022-09-04T03:11:41.007Z,21.66
2022-09-04T03:14:34.716Z,21.94
2022-09-04T03:17:47.795Z,21.52
2022-09-04T03:20:20.352Z,21.58
2022-09-04T03:23:28.745Z,22.05
2022-09-04T03:26:05.434Z,21.89
2022-09-04T03:28:45.845Z,22.66
2022-09-04T03:31:32.609Z,22.10
2022-09-04T03:34:23.291Z,22.03
2022-09-04T03:37:05.726Z,22.08
2022-09-04T03:40:02.298Z,22.09
2022-09-04T03:42:31.888Z,22.29
2022-09-04T03:45:11.038Z,22.16
2022-09-04T03:48:05.792Z,21.90
2022-09-04T03:50:38.418Z,22.40
2022-09-04T03:53:19.333Z,22.36
2022-09-04T03:56:07.066Z,21.94
2022-09-04T03:58:46.786Z,22.86
2022-09-04T04:01:33.814Z,23.17
2022-09-04T04:04:16.967Z,22.68
2022-09-04T04:06:53.089Z,22.43
2022-09-04T04:10:10.506Z,22.49
2022-09-04T04:12:56.985Z,22.46
2022-09-04T04:15:27.900Z,23.34
2022-09-04T04:18:01.382Z,23.04
2022-09-04T04:20:58.390Z,22.81
2022-09-04T04:24:06.800Z,22.74
2022-09-04T04:27:04.224Z,23.21
2022-09-04T04:29:49.357Z,23.84
2022-09-04T04:32:24.557Z,23.88
2022-09-04T04:35:11.646Z,23.11
2022-09-04T04:38:06.962Z,22.06
2022-09-04T04:41:00.902Z,21.55
2022-09-04T04:43:30.750Z,20.53
2022-09-04T04:46:29.414Z,20.03
2022-09-04T04:49:17.813Z,19.64
2022-09-04T04:52:16.971Z,20.39
2022-09-04T04:55:05.505Z,20.85
2022-09-04T04:57:32.396Z,21.48
2022-09-04T05:00:27.786Z,21.18
2022-09-04T05:03:46.201Z,21.75
2022-09-04T05:06:36.223Z,22.60
2022-09-04T05:09:09.179Z,22.31
2022-09-04T05:12:17.078Z,21.41
2022-09-04T05:14:53.015Z,22.07
2022-09-04T05:17:56.898Z,22.23
2022-09-04T05:20:33.471Z,20.65
2022-09-04T05:23:37.189Z,22.75
2022-09-04T05:26:38.158Z,21.60
2022-09-04T05:29:13.478Z,22.94
2022-09-04T05:31:58.299Z,21.95
2022-09-04T05:34:37.015Z,20.93
2022-09-04T05:37:35.483Z,20.50
2022-09-04T05:40:22.535Z,20.92
2022-09-04T05:42:54.579Z,20.56
2022-09-04T05:45:36.217Z,19.47
2022-09-04T05:48:24.783Z,18.76
2022-09-04T05:51:13.725Z,18.13
2022-09-04T05:54:05.093Z,17.70
2022-09-04T05:56:39.461Z,18.01
2022-09-04T05:59:18.936Z,17.65
2022-09-04T06:02:01.916Z,18.39
2022-09-04T06:04:34.699Z,19.36
2022-09-04T06:08:03.185Z,20.26
2022-09-04T06:11:07.308Z,19.94
2022-09-04T06:13:55.720Z,20.28
2022-09-04T06:16:47.451Z,20.76
2022-09-04T06:19:23.532Z,19.69
2022-09-04T06:21:56.510Z,19.99
2022-09-04T06:24:41.940Z,20.90
2022-09-04T06:27:27.187Z,20.62
2022-09-04T06:30:12.943Z,19.82
2022-09-04T06:33:05.568Z,19.40
2022-09-04T06:35:52.187Z,19.34
2022-09-04T06:38:34.076Z,19.65
2022-09-04T06:41:22.772Z,20.00
2022-09-04T06:43:58.626Z,20.12
2022-09-04T06:46:40.924Z,19.56
2022-09-04T06:49:27.310Z,18.79
2022-09-04T06:52:07.724Z,18.58
2022-09-04T06:54:40.856Z,19.44
2022-09-04T06:57:32.676Z,19.58
2022-09-04T07:00:04.784Z,18.75
2022-09-04T07:02:54.624Z,17.95
2022-09-04T07:05:45.158Z,18.00
2022-09-04T07:08:24.162Z,17.98
2022-09-04T07:11:12.790Z,18.36
2022-09-04T07:13:57.752Z,19.02
2022-09-04T07:16:27.621Z,18.41
2022-09-04T07:19:03.617Z,17.88
2022-09-04T07:21:49.665Z,17.99
2022-09-04T07:24:38.897Z,17.77
2022-09-04T07:27:42.645Z,17.64
2022-09-04T07:30:12.688Z,19.02
2022-09-04T07:33:10.456Z,19.28
2022-09-04T07:35:57.437Z,19.29
2022-09-04T07:38:31.061Z,18.81
2022-09-04T07:41:20.193Z,19.77
2022-09-04T07:44:14.348Z,19.87
2022-09-04T07:46:57.807Z,19.87
2022-09-04T07:50:00.916Z,20.78
2022-09-04T07:52:38.701Z,21.13
2022-09-04T07:55:09.188Z,20.58
2022-09-04T07:58:03.696Z,20.27
2022-09-04T08:00:55.526Z,20.15
2022-09-04T08:03:37.428Z,20.93
2022-09-04T08:06:36.232Z,20.18
2022-09-04T08:09:25.395Z,19.65
2022-09-04T08:12:08.136Z,20.08
2022-09-04T08:14:46.059Z,20.16
2022-09-04T08:17:28.132Z,21.91
2022-09-04T08:20:17.752Z,22.33
2022-09-04T08:23:13.922Z,22.75
2022-09-04T08:26:20.407Z,22.30
2022-09-04T08:29:12.749Z,22.58
2022-09-04T08:31:43.630Z,23.05
2022-09-04T08:34:25.697Z,23.02
2022-09-04T08:37:06.683Z,22.44
2022-09-04T08:39:56.002Z,23.03
2022-09-04T08:42:38.985Z,22.07
2022-09-04T08:45:24.307Z,21.32
2022-09-04T08:48:12.317Z,21.70
2022-09-04T08:51:05.238Z,21.10
2022-09-04T08:54:03.874Z,21.45
2022-09-04T08:56:38.121Z,21.57
2022-09-04T08:59:20.364Z,20.41
2022-09-04T09:02:14.474Z,20.68
2022-09-04T09:05:15.907Z,20.96
2022-09-04T09:08:20.414Z,20.82
2022-09-04T09:11:03.237Z,22.77
2022-09-04T09:13:51.906Z,23.16
2022-09-04T09:16:40.137Z,22.62
2022-09-04T09:19:11.424Z,22.80
2022-09-04T09:21:50.719Z,23.62
2022-09-04T09:24:24.610Z,24.52
2022-09-04T09:27:09.759Z,25.23
2022-09-04T09:30:08.873Z,25.92
2022-09-04T09:32:54.383Z,25.32
2022-09-04T09:35:51.762Z,24.99
2022-09-04T09:38:35.024Z,25.04
2022-09-04T09:41:20.656Z,25.24
2022-09-04T09:44:15.502Z,25.39
2022-09-04T09:47:27.407Z,25.99
2022-09-04T09:50:20.952Z,25.88
2022-09-04T09:53:17.959Z,26.24
2022-09-04T09:56:08.517Z,26.21
2022-09-04T09:58:50.974Z,26.62
2022-09-04T10:01:20.863Z,26.81
2022-09-04T10:03:53.704Z,27.33
2022-09-04T10:06:53.319Z,26.85
2022-09-04T10:09:29.238Z,25.82
2022-09-04T10:12:02.235Z,25.91
2022-09-04T10:15:09.085Z,26.24
2022-09-04T10:17:50.838Z,26.68
2022-09-04T10:20:46.429Z,26.84
2022-09-04T10:23:40.919Z,26.90
2022-09-04T10:26:35.359Z,26.17
2022-09-04T10:29:32.739Z,25.76
2022-09-04T10:32:05.610Z,26.15
2022-09-04T10:35:15.256Z,25.07
2022-09-04T10:38:12.999Z,25.60
2022-09-04T10:41:15.128Z,25.59
2022-09-04T10:43:58.327Z,25.90
2022-09-04T10:46:30.223Z,26.61
2022-09-04T10:49:30.616Z,27.33
2022-09-04T10:52:06.681Z,27.03
2022-09-04T10:54:51.064Z,27.40
2022-09-04T10:57:37.524Z,27.49
2022-09-04T11:00:14.649Z,27.65
2022-09-04T11:03:13.961Z,28.08
2022-09-04T11:06:11.285Z,26.12
2022-09-04T11:09:15.433Z,26.38
2022-09-04T11:11:53.679Z,27.41
2022-09-04T11:14:39.092Z,26.92
2022-09-04T11:17:28.703Z,26.34
2022-09-04T11:20:37.012Z,26.19
2022-09-04T11:23:23.321Z,26.90
2022-09-04T11:26:27.836Z,26.28
2022-09-04T11:29:00.746Z,25.81
2022-09-04T11:31:30.508Z,26.76
2022-09-04T11:34:23.114Z,26.22
2022-09-04T11:37:15.623Z,25.46
2022-09-04T11:39:51.791Z,26.76
2022-09-04T11:42:28.543Z,26.66
2022-09-04T11:45:16.902Z,27.06
2022-09-04T11:48:05.690Z,27.99
2022-09-04T11:50:38.492Z,27.62
2022-09-04T11:53:30.462Z,27.75
2022-09-04T11:56:36.455Z,28.06
2022-09-04T11:59:11.031Z,28.70
2022-09-04T12:02:20.305Z,27.60
2022-09-04T12:05:08.877Z,28.06
2022-09-04T12:07:45.040Z,27.81
2022-09-04T12:10:30.879Z,27.54
2022-09-04T12:13:15.852Z,27.31
2022-09-04T12:15:55.861Z,26.31
2022-09-04T12:18:34.975Z,26.83
2022-09-04T12:21:26.719Z,27.58
2022-09-04T12:23:59.357Z,27.54
2022-09-04T12:26:33.660Z,28.06
2022-09-04T12:29:22.821Z,27.84
2022-09-04T12:32:25.515Z,27.34
2022-09-04T12:35:10.728Z,27.86
2022-09-04T12:37:56.489Z,28.94
2022-09-04T12:40:31.379Z,28.14
2022-09-04T12:43:07.090Z,28.40
2022-09-04T12:45:55.414Z,28.07
2022-09-04T12:48:28.026Z,28.05
2022-09-04T12:51:12.908Z,27.35
2022-09-04T12:53:57.678Z,28.52
2022-09-04T12:56:28.057Z,28.96
2022-09-04T12:58:59.514Z,28.70
2022-09-04T13:01:40.981Z,29.26
2022-09-04T13:04:30.554Z,28.67
2022-09-04T13:07:28.549Z,28.45
2022-09-04T13:10:13.608Z,27.87
2022-09-04T13:13:08.342Z,27.43
2022-09-04T13:15:54.180Z,27.65
2022-09-04T13:18:39.496Z,28.11
2022-09-04T13:21:17.645Z,28.99
2022-09-04T13:24:04.077Z,29.72
2022-09-04T13:26:57.016Z,29.03
2022-09-04T13:29:53.136Z,27.84
2022-09-04T13:32:35.162Z,28.34
2022-09-04T13:35:39.700Z,28.69
2022-09-04T13:38:09.308Z,27.66
2022-09-04T13:41:05.110Z,28.07
2022-09-04T13:43:41.679Z,28.51
2022-09-04T13:46:13.357Z,28.04
2022-09-04T13:48:43.968Z,28.54
2022-09-04T13:51:16.093Z,28.64
2022-09-04T13:53:58.980Z,28.15
2022-09-04T13:56:34.991Z,28.40
2022-09-04T13:59:09.638Z,28.49
2022-09-04T14:01:46.333Z,28.35
2022-09-04T14:04:39.617Z,29.50
2022-09-04T14:07:11.696Z,28.68
2022-09-04T14:09:42.917Z,27.52
2022-09-04T14:12:16.597Z,27.65
2022-09-04T14:15:20.870Z,28.07
2022-09-04T14:18:05.507Z,27.65
2022-09-04T14:20:40.756Z,28.38
2022-09-04T14:23:20.558Z,27.51
2022-09-04T14:26:04.420Z,27.20
2022-09-04T14:28:41.678Z,28.68
2022-09-04T14:31:34.121Z,28.22
2022-09-04T14:34:13.922Z,28.06
2022-09-04T14:36:56.703Z,27.90
2022-09-04T14:39:44.344Z,28.31
2022-09-04T14:42:30.005Z,27.44
2022-09-04T14:45:23.562Z,28.52
2022-09-04T14:47:55.057Z,29.27
2022-09-04T14:50:30.486Z,28.79
2022-09-04T14:53:01.192Z,29.36
2022-09-04T14:55:30.471Z,29.77
2022-09-04T14:58:19.806Z,29.68
2022-09-04T15:00:59.351Z,29.40
2022-09-04T15:03:32.308Z,28.53
2022-09-04T15:06:02.485Z,29.51
2022-09-04T15:08:39.940Z,29.56
2022-09-04T15:11:30.979Z,29.42
2022-09-04T15:14:05.183Z,29.25
2022-09-04T15:16:32.114Z,28.90
2022-09-04T15:19:08.990Z,28.37
2022-09-04T15:21:44.913Z,29.27
2022-09-04T15:24:27.670Z,27.57
2022-09-04T15:27:20.752Z,28.30
2022-09-04T15:29:53.644Z,28.23
2022-09-04T15:32:39.871Z,28.27
2022-09-04T15:35:23.147Z,29.31
2022-09-04T15:38:07.742Z,28.56
2022-09-04T15:40:59.663Z,28.95
2022-09-04T15:43:31.480Z,28.60
2022-09-04T15:46:06.196Z,28.59
2022-09-04T15:48:53.676Z,28.41
2022-09-04T15:51:37.677Z,28.43
2022-09-04T15:54:33.633Z,27.93
2022-09-04T15:57:17.550Z,28.54
2022-09-04T16:00:00.990Z,28.09
2022-09-04T16:02:43.185Z,28.09
2022-09-04T16:05:36.263Z,27.71
2022-09-04T16:08:22.039Z,27.55
2022-09-04T16:11:04.392Z,27.32
2022-09-04T16:13:58.303Z,26.70
2022-09-04T16:16:29.280Z,27.56
2022-09-04T16:19:25.676Z,27.09
2022-09-04T16:22:26.519Z,26.90
2022-09-04T16:25:11.973Z,27.33
2022-09-04T16:27:45.089Z,27.99
2022-09-04T16:30:30.359Z,27.12
2022-09-04T16:32:58.618Z,27.00
2022-09-04T16:35:25.946Z,27.06
2022-09-04T16:37:59.466Z,26.72
2022-09-04T16:40:59.081Z,26.74
2022-09-04T16:43:34.763Z,27.29
2022-09-04T16:46:13.755Z,26.99
2022-09-04T16:48:55.312Z,26.98
2022-09-04T16:51:40.320Z,27.50
2022-09-04T16:54:12.117Z,27.97
2022-09-04T16:56:50.354Z,27.69
2022-09-04T16:59:38.164Z,27.76
2022-09-04T17:02:37.735Z,27.04
2022-09-04T17:05:40.189Z,27.46
2022-09-04T17:08:18.706Z,27.22
2022-09-04T17:11:22.374Z,26.43
2022-09-04T17:13:52.385Z,26.58
2022-09-04T17:16:24.263Z,26.31
2022-09-04T17:18:55.799Z,26.51
2022-09-04T17:22:33.248Z,25.87
2022-09-04T17:28:54.532Z,26.25
2022-09-04T17:29:16.884Z,26.05
2022-09-04T17:30:45.333Z,25.08
2022-09-04T17:36:50.630Z,25.85
2022-09-04T17:40:53.993Z,26.38
2022-09-04T17:41:29.613Z,26.67
2022-09-04T17:42:32.658Z,26.09
2022-09-04T17:45:00.367Z,26.22
2022-09-04T17:47:33.320Z,26.23
2022-09-04T17:50:02.037Z,25.82
2022-09-04T17:52:32.806Z,26.60
2022-09-04T17:55:12.075Z,25.92
2022-09-04T17:58:15.277Z,24.87
2022-09-04T18:01:15.662Z,25.46
2022-09-04T18:04:21.997Z,26.39
2022-09-04T18:06:57.791Z,27.19
2022-09-04T18:09:41.215Z,27.15
2022-09-04T18:12:19.493Z,27.12
2022-09-04T18:15:32.419Z,27.23
2022-09-04T18:18:22.327Z,26.95
2022-09-04T18:20:55.653Z,27.12
2022-09-04T18:23:46.014Z,27.77
2022-09-04T18:26:23.348Z,27.88
2022-09-04T18:31:07.257Z,27.46
2022-09-04T18:37:15.826Z,26.62
2022-09-04T18:37:25.849Z,26.58
2022-09-04T18:38:19.787Z,26.59
2022-09-04T18:44:08.713Z,26.96
2022-09-04T18:50:23.982Z,27.34
2022-09-04T18:50:37.436Z,26.51
2022-09-04T18:50:41.120Z,26.86
2022-09-04T18:52:48.795Z,25.88
2022-09-04T18:55:42.907Z,26.00
2022-09-04T18:58:12.746Z,26.14
2022-09-04T19:00:53.433Z,27.07
2022-09-04T19:03:42.131Z,26.78
2022-09-04T19:06:15.424Z,26.48
2022-09-04T19:08:52.080Z,26.71
2022-09-04T19:11:42.604Z,26.31
2022-09-04T19:14:19.632Z,25.30
2022-09-04T19:16:55.869Z,25.29
2022-09-04T19:19:50.887Z,25.60
2022-09-04T19:22:38.065Z,24.47
2022-09-04T19:25:21.374Z,24.97
2022-09-04T19:27:58.535Z,25.71
2022-09-04T19:30:27.339Z,26.01
2022-09-04T19:33:03.049Z,26.21
2022-09-04T19:35:42.148Z,26.04
2022-09-04T19:41:42.976Z,25.32
2022-09-04T19:45:54.984Z,25.07
2022-09-04T19:46:17.656Z,25.39
2022-09-04T19:47:09.373Z,25.81
2022-09-04T19:53:18.120Z,25.06
2022-09-04T19:53:34.184Z,25.49
2022-09-04T19:56:19.575Z,25.42
2022-09-04T19:58:52.598Z,24.99
2022-09-04T20:01:44.600Z,24.52
2022-09-04T20:04:28.059Z,25.11
2022-09-04T20:06:59.483Z,25.11
2022-09-04T20:09:37.685Z,25.25
2022-09-04T20:12:13.479Z,25.35
2022-09-04T20:14:51.464Z,25.52
2022-09-04T20:18:04.185Z,25.11
2022-09-04T20:20:37.547Z,24.27
2022-09-04T20:23:51.881Z,24.49
2022-09-04T20:26:42.809Z,25.12
2022-09-04T20:29:23.741Z,24.76
2022-09-04T20:32:04.344Z,25.13
2022-09-04T20:34:34.078Z,24.64
2022-09-04T20:37:19.497Z,24.66
2022-09-04T20:40:16.875Z,24.43
2022-09-04T20:42:56.735Z,24.31
2022-09-04T20:49:35.203Z,23.95
2022-09-04T20:52:55.659Z,23.45
2022-09-04T20:52:59.018Z,23.04
2022-09-04T20:54:56.231Z,24.29
2022-09-04T21:03:13.055Z,24.12
2022-09-04T21:03:22.836Z,23.65
2022-09-04T21:03:35.158Z,24.42
2022-09-04T21:06:18.216Z,24.38
2022-09-04T21:09:07.634Z,23.66
2022-09-04T21:11:39.185Z,23.02
2022-09-04T21:14:45.166Z,23.30
2022-09-04T21:17:38.898Z,23.40
2022-09-04T21:20:30.636Z,23.15
2022-09-04T21:23:11.613Z,23.18
2022-09-04T21:26:15.872Z,23.33
2022-09-04T21:28:59.705Z,23.07
2022-09-04T21:32:01.318Z,22.17
2022-09-04T21:34:55.011Z,21.94
2022-09-04T21:37:34.167Z,22.61
2022-09-04T21:40:51.793Z,22.01
2022-09-04T21:43:36.227Z,22.48
2022-09-04T21:46:34.911Z,23.02
2022-09-04T21:49:29.760Z,23.29
2022-09-04T21:52:06.367Z,24.01
2022-09-04T21:55:29.854Z,23.72
2022-09-04T22:02:32.575Z,23.94
2022-09-04T22:02:37.648Z,23.20
2022-09-04T22:04:35.572Z,22.86
2022-09-04T22:10:33.769Z,22.95
2022-09-04T22:13:40.855Z,22.77
2022-09-04T22:13:43.378Z,22.52
2022-09-04T22:16:41.988Z,22.45
2022-09-04T22:19:33.918Z,23.01
2022-09-04T22:22:14.105Z,23.08
2022-09-04T22:25:04.487Z,22.48
2022-09-04T22:28:07.549Z,22.95
2022-09-04T22:31:05.447Z,23.36
2022-09-04T22:34:20.143Z,22.96
2022-09-04T22:37:06.699Z,22.22
2022-09-04T22:39:43.035Z,22.44
2022-09-04T22:42:34.468Z,22.86
2022-09-04T22:45:10.499Z,22.20
2022-09-04T22:47:53.498Z,22.56
2022-09-04T22:50:48.989Z,22.18
2022-09-04T22:53:36.789Z,22.81
2022-09-04T22:56:23.310Z,22.34
2022-09-04T22:58:55.788Z,23.01
2022-09-04T23:02:13.650Z,22.73
2022-09-04T23:05:03.527Z,22.98
2022-09-04T23:13:42.273Z,22.96
2022-09-04T23:13:48.166Z,23.28
2022-09-04T23:14:03.085Z,23.62
2022-09-04T23:16:34.331Z,22.71
2022-09-04T23:21:10.570Z,22.75
2022-09-04T23:26:44.143Z,22.80
2022-09-04T23:26:44.994Z,22.37
2022-09-04T23:28:48.463Z,22.42
2022-09-04T23:31:41.522Z,22.50
2022-09-04T23:34:42.637Z,21.72
2022-09-04T23:38:00.621Z,21.79
2022-09-04T23:40:35.856Z,22.23
2022-09-04T23:43:24.230Z,22.51
2022-09-04T23:46:13.539Z,22.97
2022-09-04T23:49:25.129Z,22.81
2022-09-04T23:51:57.578Z,23.10
2022-09-04T23:54:50.506Z,22.54
2022-09-04T23:57:27.290Z,22.37
